sensor_id;sensor_type;location;lat;lon;timestamp;P1;durP1;ratioP1;P2;durP2;ratioP2
29504;SDS011;16452;54.174;12.092;2022-09-27T00:01:13;3.65;;;1.35;;
29504;SDS011;16452;54.174;12.092;2022-09-27T00:03:40;1.70;;;1.60;;
29504;SDS011;16452;54.174;12.092;2022-09-27T00:06:13;1.85;;;1.45;;
29504;SDS011;16452;54.174;12.092;2022-09-27T00:08:46;1.70;;;1.30;;
29504;SDS011;16452;54.174;12.092;2022-09-27T00:14:01;3.58;;;1.50;;
29504;SDS011;16452;54.174;12.092;2022-09-27T00:16:29;3.25;;;1.75;;
29504;SDS011;16452;54.174;12.092;2022-09-27T00:19:01;2.42;;;1.60;;
29504;SDS011;16452;54.174;12.092;2022-09-27T00:21:32;3.20;;;1.50;;
29504;SDS011;16452;54.174;12.092;2022-09-27T00:23:58;2.85;;;1.48;;
29504;SDS011;16452;54.174;12.092;2022-09-27T00:26:24;2.10;;;1.52;;
29504;SDS011;16452;54.174;12.092;2022-09-27T00:28:51;2.97;;;1.30;;
29504;SDS011;16452;54.174;12.092;2022-09-27T00:31:18;3.65;;;1.65;;
29504;SDS011;16452;54.174;12.092;2022-09-27T00:33:48;2.38;;;1.58;;
29504;SDS011;16452;54.174;12.092;2022-09-27T00:36:16;2.05;;;1.58;;
29504;SDS011;16452;54.174;12.092;2022-09-27T00:38:44;4.10;;;1.70;;
29504;SDS011;16452;54.174;12.092;2022-09-27T00:41:14;4.57;;;1.70;;
29504;SDS011;16452;54.174;12.092;2022-09-27T00:43:52;3.92;;;1.60;;
29504;SDS011;16452;54.174;12.092;2022-09-27T00:46:32;2.08;;;1.63;;
29504;SDS011;16452;54.174;12.092;2022-09-27T00:49:19;2.63;;;1.75;;
29504;SDS011;16452;54.174;12.092;2022-09-27T00:54:41;3.88;;;1.60;;
29504;SDS011;16452;54.174;12.092;2022-09-27T00:57:12;3.08;;;1.63;;
29504;SDS011;16452;54.174;12.092;2022-09-27T00:59:43;3.83;;;1.77;;
29504;SDS011;16452;54.174;12.092;2022-09-27T01:02:22;1.55;;;1.40;;
29504;SDS011;16452;54.174;12.092;2022-09-27T01:04:48;2.58;;;1.85;;
29504;SDS011;16452;54.174;12.092;2022-09-27T01:07:15;4.10;;;1.50;;
29504;SDS011;16452;54.174;12.092;2022-09-27T01:09:40;2.40;;;1.50;;
29504;SDS011;16452;54.174;12.092;2022-09-27T01:14:57;3.10;;;1.80;;
29504;SDS011;16452;54.174;12.092;2022-09-27T01:32:31;2.83;;;1.50;;
29504;SDS011;16452;54.174;12.092;2022-09-27T01:35:21;6.18;;;1.55;;
29504;SDS011;16452;54.174;12.092;2022-09-27T01:41:42;3.22;;;1.65;;
29504;SDS011;16452;54.174;12.092;2022-09-27T01:44:35;3.40;;;1.42;;
29504;SDS011;16452;54.174;12.092;2022-09-27T01:47:18;2.60;;;1.50;;
29504;SDS011;16452;54.174;12.092;2022-09-27T01:52:22;3.13;;;1.60;;
29504;SDS011;16452;54.174;12.092;2022-09-27T01:55:08;3.13;;;1.67;;
29504;SDS011;16452;54.174;12.092;2022-09-27T01:57:40;4.85;;;1.80;;
29504;SDS011;16452;54.174;12.092;2022-09-27T02:00:13;6.40;;;1.75;;
29504;SDS011;16452;54.174;12.092;2022-09-27T02:02:41;2.78;;;1.75;;
29504;SDS011;16452;54.174;12.092;2022-09-27T02:05:16;2.28;;;1.80;;
29504;SDS011;16452;54.174;12.092;2022-09-27T02:07:45;3.15;;;1.88;;
29504;SDS011;16452;54.174;12.092;2022-09-27T02:10:20;4.35;;;1.60;;
29504;SDS011;16452;54.174;12.092;2022-09-27T02:12:57;3.28;;;1.83;;
29504;SDS011;16452;54.174;12.092;2022-09-27T02:15:27;3.25;;;1.98;;
29504;SDS011;16452;54.174;12.092;2022-09-27T02:18:10;1.65;;;1.55;;
29504;SDS011;16452;54.174;12.092;2022-09-27T02:20:50;2.53;;;1.70;;
29504;SDS011;16452;54.174;12.092;2022-09-27T02:23:25;4.57;;;1.88;;
29504;SDS011;16452;54.174;12.092;2022-09-27T02:26:08;2.70;;;2.00;;
29504;SDS011;16452;54.174;12.092;2022-09-27T02:28:45;3.15;;;1.80;;
29504;SDS011;16452;54.174;12.092;2022-09-27T02:31:25;4.63;;;2.40;;
29504;SDS011;16452;54.174;12.092;2022-09-27T02:34:00;4.05;;;2.35;;
29504;SDS011;16452;54.174;12.092;2022-09-27T02:36:34;4.18;;;2.40;;
29504;SDS011;16452;54.174;12.092;2022-09-27T02:39:00;4.68;;;2.60;;
29504;SDS011;16452;54.174;12.092;2022-09-27T02:41:26;2.83;;;2.10;;
29504;SDS011;16452;54.174;12.092;2022-09-27T02:43:53;3.45;;;2.08;;
29504;SDS011;16452;54.174;12.092;2022-09-27T02:46:36;2.47;;;2.03;;
29504;SDS011;16452;54.174;12.092;2022-09-27T02:49:48;2.78;;;2.00;;
29504;SDS011;16452;54.174;12.092;2022-09-27T02:58:34;2.05;;;1.75;;
29504;SDS011;16452;54.174;12.092;2022-09-27T03:01:17;5.28;;;2.38;;
29504;SDS011;16452;54.174;12.092;2022-09-27T03:04:36;3.75;;;2.13;;
29504;SDS011;16452;54.174;12.092;2022-09-27T03:07:11;5.85;;;2.00;;
29504;SDS011;16452;54.174;12.092;2022-09-27T03:09:39;2.83;;;2.03;;
29504;SDS011;16452;54.174;12.092;2022-09-27T03:12:10;2.53;;;2.20;;
29504;SDS011;16452;54.174;12.092;2022-09-27T03:14:36;4.93;;;2.13;;
29504;SDS011;16452;54.174;12.092;2022-09-27T03:17:01;3.70;;;2.08;;
29504;SDS011;16452;54.174;12.092;2022-09-27T03:19:27;4.97;;;2.50;;
29504;SDS011;16452;54.174;12.092;2022-09-27T03:21:53;4.40;;;2.42;;
29504;SDS011;16452;54.174;12.092;2022-09-27T03:24:19;5.28;;;2.67;;
29504;SDS011;16452;54.174;12.092;2022-09-27T03:26:45;3.55;;;2.75;;
29504;SDS011;16452;54.174;12.092;2022-09-27T03:29:11;3.30;;;2.70;;
29504;SDS011;16452;54.174;12.092;2022-09-27T03:31:36;5.45;;;3.13;;
29504;SDS011;16452;54.174;12.092;2022-09-27T03:34:02;5.35;;;3.45;;
29504;SDS011;16452;54.174;12.092;2022-09-27T03:36:28;4.10;;;3.50;;
29504;SDS011;16452;54.174;12.092;2022-09-27T03:38:54;4.57;;;3.50;;
29504;SDS011;16452;54.174;12.092;2022-09-27T03:41:19;9.23;;;3.53;;
29504;SDS011;16452;54.174;12.092;2022-09-27T03:43:45;4.20;;;2.42;;
29504;SDS011;16452;54.174;12.092;2022-09-27T03:46:11;7.13;;;3.60;;
29504;SDS011;16452;54.174;12.092;2022-09-27T03:48:36;6.15;;;4.18;;
29504;SDS011;16452;54.174;12.092;2022-09-27T03:51:02;4.82;;;3.60;;
29504;SDS011;16452;54.174;12.092;2022-09-27T03:53:28;6.15;;;3.85;;
29504;SDS011;16452;54.174;12.092;2022-09-27T03:55:54;6.47;;;3.40;;
29504;SDS011;16452;54.174;12.092;2022-09-27T03:58:20;4.80;;;3.15;;
29504;SDS011;16452;54.174;12.092;2022-09-27T04:00:46;4.38;;;3.25;;
29504;SDS011;16452;54.174;12.092;2022-09-27T04:03:12;6.88;;;3.30;;
29504;SDS011;16452;54.174;12.092;2022-09-27T04:05:37;4.22;;;3.20;;
29504;SDS011;16452;54.174;12.092;2022-09-27T04:08:04;5.22;;;3.00;;
29504;SDS011;16452;54.174;12.092;2022-09-27T04:10:30;3.97;;;3.05;;
29504;SDS011;16452;54.174;12.092;2022-09-27T04:12:56;6.05;;;2.67;;
29504;SDS011;16452;54.174;12.092;2022-09-27T04:15:22;3.80;;;2.97;;
29504;SDS011;16452;54.174;12.092;2022-09-27T04:17:48;4.57;;;2.85;;
29504;SDS011;16452;54.174;12.092;2022-09-27T04:20:14;4.57;;;2.92;;
29504;SDS011;16452;54.174;12.092;2022-09-27T04:22:40;4.70;;;3.10;;
29504;SDS011;16452;54.174;12.092;2022-09-27T04:25:08;6.40;;;3.38;;
29504;SDS011;16452;54.174;12.092;2022-09-27T04:27:34;7.35;;;3.83;;
29504;SDS011;16452;54.174;12.092;2022-09-27T04:30:00;11.82;;;3.75;;
29504;SDS011;16452;54.174;12.092;2022-09-27T04:32:30;7.30;;;3.40;;
29504;SDS011;16452;54.174;12.092;2022-09-27T04:34:56;3.95;;;3.17;;
29504;SDS011;16452;54.174;12.092;2022-09-27T04:37:40;5.82;;;3.30;;
29504;SDS011;16452;54.174;12.092;2022-09-27T04:40:07;14.63;;;3.20;;
29504;SDS011;16452;54.174;12.092;2022-09-27T04:42:33;4.55;;;3.40;;
29504;SDS011;16452;54.174;12.092;2022-09-27T04:44:59;8.05;;;3.92;;
29504;SDS011;16452;54.174;12.092;2022-09-27T04:47:25;9.88;;;3.80;;
29504;SDS011;16452;54.174;12.092;2022-09-27T04:49:50;5.03;;;3.28;;
29504;SDS011;16452;54.174;12.092;2022-09-27T04:52:16;6.55;;;3.30;;
29504;SDS011;16452;54.174;12.092;2022-09-27T04:54:42;8.90;;;3.42;;
29504;SDS011;16452;54.174;12.092;2022-09-27T04:57:08;5.05;;;3.22;;
29504;SDS011;16452;54.174;12.092;2022-09-27T04:59:33;6.18;;;3.63;;
29504;SDS011;16452;54.174;12.092;2022-09-27T05:01:59;3.95;;;3.30;;
29504;SDS011;16452;54.174;12.092;2022-09-27T05:04:25;4.95;;;3.33;;
29504;SDS011;16452;54.174;12.092;2022-09-27T05:06:51;6.63;;;3.13;;
29504;SDS011;16452;54.174;12.092;2022-09-27T05:09:17;3.45;;;3.15;;
29504;SDS011;16452;54.174;12.092;2022-09-27T05:11:43;5.97;;;3.70;;
29504;SDS011;16452;54.174;12.092;2022-09-27T05:14:09;4.40;;;3.42;;
29504;SDS011;16452;54.174;12.092;2022-09-27T05:16:35;6.93;;;3.47;;
29504;SDS011;16452;54.174;12.092;2022-09-27T05:19:02;7.72;;;3.88;;
29504;SDS011;16452;54.174;12.092;2022-09-27T05:21:28;6.55;;;3.90;;
29504;SDS011;16452;54.174;12.092;2022-09-27T05:23:55;6.47;;;3.95;;
29504;SDS011;16452;54.174;12.092;2022-09-27T05:26:22;12.25;;;10.20;;
29504;SDS011;16452;54.174;12.092;2022-09-27T05:28:47;10.82;;;6.47;;
29504;SDS011;16452;54.174;12.092;2022-09-27T05:31:13;8.50;;;5.30;;
29504;SDS011;16452;54.174;12.092;2022-09-27T05:33:40;17.13;;;12.25;;
29504;SDS011;16452;54.174;12.092;2022-09-27T05:36:05;9.95;;;6.18;;
29504;SDS011;16452;54.174;12.092;2022-09-27T05:38:32;10.63;;;8.95;;
29504;SDS011;16452;54.174;12.092;2022-09-27T05:40:59;17.75;;;11.32;;
29504;SDS011;16452;54.174;12.092;2022-09-27T05:43:25;5.22;;;3.83;;
29504;SDS011;16452;54.174;12.092;2022-09-27T05:45:52;6.85;;;4.20;;
29504;SDS011;16452;54.174;12.092;2022-09-27T05:48:17;7.25;;;4.32;;
29504;SDS011;16452;54.174;12.092;2022-09-27T05:50:44;7.40;;;3.90;;
29504;SDS011;16452;54.174;12.092;2022-09-27T05:53:10;8.88;;;4.88;;
29504;SDS011;16452;54.174;12.092;2022-09-27T05:55:37;5.95;;;4.10;;
29504;SDS011;16452;54.174;12.092;2022-09-27T05:58:04;4.35;;;3.90;;
29504;SDS011;16452;54.174;12.092;2022-09-27T06:00:32;8.73;;;4.03;;
29504;SDS011;16452;54.174;12.092;2022-09-27T06:02:59;6.55;;;4.30;;
29504;SDS011;16452;54.174;12.092;2022-09-27T06:05:30;8.30;;;4.00;;
29504;SDS011;16452;54.174;12.092;2022-09-27T06:08:05;9.05;;;4.22;;
29504;SDS011;16452;54.174;12.092;2022-09-27T06:10:36;8.75;;;4.32;;
29504;SDS011;16452;54.174;12.092;2022-09-27T06:13:05;8.18;;;4.10;;
29504;SDS011;16452;54.174;12.092;2022-09-27T06:15:35;8.40;;;4.32;;
29504;SDS011;16452;54.174;12.092;2022-09-27T06:18:10;6.07;;;3.70;;
29504;SDS011;16452;54.174;12.092;2022-09-27T06:20:40;13.38;;;3.70;;
29504;SDS011;16452;54.174;12.092;2022-09-27T06:23:17;4.53;;;3.58;;
29504;SDS011;16452;54.174;12.092;2022-09-27T06:25:45;7.03;;;3.63;;
29504;SDS011;16452;54.174;12.092;2022-09-27T06:28:12;8.38;;;4.10;;
29504;SDS011;16452;54.174;12.092;2022-09-27T06:30:38;4.72;;;3.22;;
29504;SDS011;16452;54.174;12.092;2022-09-27T06:33:08;6.65;;;3.78;;
29504;SDS011;16452;54.174;12.092;2022-09-27T06:35:36;4.85;;;3.95;;
29504;SDS011;16452;54.174;12.092;2022-09-27T06:38:03;6.18;;;3.25;;
29504;SDS011;16452;54.174;12.092;2022-09-27T06:40:32;5.97;;;3.00;;
29504;SDS011;16452;54.174;12.092;2022-09-27T06:43:02;6.35;;;3.40;;
29504;SDS011;16452;54.174;12.092;2022-09-27T06:45:34;5.72;;;3.10;;
29504;SDS011;16452;54.174;12.092;2022-09-27T06:48:01;6.63;;;3.40;;
29504;SDS011;16452;54.174;12.092;2022-09-27T06:50:29;4.75;;;3.35;;
29504;SDS011;16452;54.174;12.092;2022-09-27T06:52:57;4.13;;;3.70;;
29504;SDS011;16452;54.174;12.092;2022-09-27T06:55:23;7.25;;;3.45;;
29504;SDS011;16452;54.174;12.092;2022-09-27T06:57:53;7.07;;;4.25;;
29504;SDS011;16452;54.174;12.092;2022-09-27T07:00:38;5.53;;;3.20;;
29504;SDS011;16452;54.174;12.092;2022-09-27T07:03:07;6.78;;;3.80;;
29504;SDS011;16452;54.174;12.092;2022-09-27T07:05:35;4.88;;;3.53;;
29504;SDS011;16452;54.174;12.092;2022-09-27T07:08:02;3.38;;;3.05;;
29504;SDS011;16452;54.174;12.092;2022-09-27T07:10:29;7.05;;;3.90;;
29504;SDS011;16452;54.174;12.092;2022-09-27T07:13:02;5.93;;;3.63;;
29504;SDS011;16452;54.174;12.092;2022-09-27T07:15:32;4.78;;;3.47;;
29504;SDS011;16452;54.174;12.092;2022-09-27T07:18:05;7.55;;;3.22;;
29504;SDS011;16452;54.174;12.092;2022-09-27T07:20:32;5.88;;;3.72;;
29504;SDS011;16452;54.174;12.092;2022-09-27T07:23:01;7.20;;;3.80;;
29504;SDS011;16452;54.174;12.092;2022-09-27T07:25:28;5.88;;;3.13;;
29504;SDS011;16452;54.174;12.092;2022-09-27T07:27:54;4.35;;;2.97;;
29504;SDS011;16452;54.174;12.092;2022-09-27T07:30:30;4.40;;;3.10;;
29504;SDS011;16452;54.174;12.092;2022-09-27T07:32:57;6.57;;;3.22;;
29504;SDS011;16452;54.174;12.092;2022-09-27T07:35:29;5.35;;;3.20;;
29504;SDS011;16452;54.174;12.092;2022-09-27T07:37:55;5.20;;;2.95;;
29504;SDS011;16452;54.174;12.092;2022-09-27T07:40:22;4.45;;;3.40;;
29504;SDS011;16452;54.174;12.092;2022-09-27T07:42:55;4.80;;;3.30;;
29504;SDS011;16452;54.174;12.092;2022-09-27T07:45:22;4.65;;;3.30;;
29504;SDS011;16452;54.174;12.092;2022-09-27T07:47:50;5.50;;;3.35;;
29504;SDS011;16452;54.174;12.092;2022-09-27T07:50:15;5.00;;;3.13;;
29504;SDS011;16452;54.174;12.092;2022-09-27T07:52:43;5.82;;;3.58;;
29504;SDS011;16452;54.174;12.092;2022-09-27T07:55:11;6.78;;;3.00;;
29504;SDS011;16452;54.174;12.092;2022-09-27T07:57:39;4.70;;;3.40;;
29504;SDS011;16452;54.174;12.092;2022-09-27T08:00:09;6.72;;;3.22;;
29504;SDS011;16452;54.174;12.092;2022-09-27T08:02:41;3.97;;;3.13;;
29504;SDS011;16452;54.174;12.092;2022-09-27T08:05:08;5.05;;;3.50;;
29504;SDS011;16452;54.174;12.092;2022-09-27T08:07:36;5.13;;;3.10;;
29504;SDS011;16452;54.174;12.092;2022-09-27T08:10:03;6.60;;;3.17;;
29504;SDS011;16452;54.174;12.092;2022-09-27T08:12:31;5.93;;;3.20;;
29504;SDS011;16452;54.174;12.092;2022-09-27T08:14:57;4.78;;;3.40;;
29504;SDS011;16452;54.174;12.092;2022-09-27T08:17:26;6.80;;;3.10;;
29504;SDS011;16452;54.174;12.092;2022-09-27T08:19:52;8.57;;;3.55;;
29504;SDS011;16452;54.174;12.092;2022-09-27T08:22:18;3.20;;;2.90;;
29504;SDS011;16452;54.174;12.092;2022-09-27T08:24:45;3.97;;;3.03;;
29504;SDS011;16452;54.174;12.092;2022-09-27T08:27:12;6.20;;;3.30;;
29504;SDS011;16452;54.174;12.092;2022-09-27T08:29:38;3.92;;;3.05;;
29504;SDS011;16452;54.174;12.092;2022-09-27T08:32:06;4.65;;;3.40;;
29504;SDS011;16452;54.174;12.092;2022-09-27T08:34:33;6.22;;;3.38;;
29504;SDS011;16452;54.174;12.092;2022-09-27T08:36:59;3.85;;;3.40;;
29504;SDS011;16452;54.174;12.092;2022-09-27T08:39:24;4.28;;;3.40;;
29504;SDS011;16452;54.174;12.092;2022-09-27T08:45:36;6.75;;;3.85;;
29504;SDS011;16452;54.174;12.092;2022-09-27T08:47:50;6.80;;;4.13;;
29504;SDS011;16452;54.174;12.092;2022-09-27T08:50:21;5.68;;;3.80;;
29504;SDS011;16452;54.174;12.092;2022-09-27T08:53:06;5.70;;;4.22;;
29504;SDS011;16452;54.174;12.092;2022-09-27T08:55:42;4.60;;;3.88;;
29504;SDS011;16452;54.174;12.092;2022-09-27T08:58:24;7.22;;;4.22;;
29504;SDS011;16452;54.174;12.092;2022-09-27T09:00:54;6.13;;;4.00;;
29504;SDS011;16452;54.174;12.092;2022-09-27T09:03:28;5.43;;;3.90;;
29504;SDS011;16452;54.174;12.092;2022-09-27T09:06:11;7.10;;;3.97;;
29504;SDS011;16452;54.174;12.092;2022-09-27T09:21:30;5.88;;;3.15;;
29504;SDS011;16452;54.174;12.092;2022-09-27T09:30:24;3.17;;;2.60;;
29504;SDS011;16452;54.174;12.092;2022-09-27T09:38:34;3.15;;;2.72;;
29504;SDS011;16452;54.174;12.092;2022-09-27T09:41:47;3.20;;;2.47;;
29504;SDS011;16452;54.174;12.092;2022-09-27T09:43:58;4.45;;;3.13;;
29504;SDS011;16452;54.174;12.092;2022-09-27T09:46:40;3.45;;;2.80;;
29504;SDS011;16452;54.174;12.092;2022-09-27T09:49:26;2.75;;;2.33;;
29504;SDS011;16452;54.174;12.092;2022-09-27T09:52:03;2.60;;;2.30;;
29504;SDS011;16452;54.174;12.092;2022-09-27T09:54:44;2.72;;;1.90;;
29504;SDS011;16452;54.174;12.092;2022-09-27T09:57:22;2.38;;;1.90;;
29504;SDS011;16452;54.174;12.092;2022-09-27T10:00:05;4.80;;;2.10;;
29504;SDS011;16452;54.174;12.092;2022-09-27T10:02:43;3.45;;;1.88;;
29504;SDS011;16452;54.174;12.092;2022-09-27T10:05:14;2.60;;;2.28;;
29504;SDS011;16452;54.174;12.092;2022-09-27T10:07:46;2.28;;;1.90;;
29504;SDS011;16452;54.174;12.092;2022-09-27T10:10:15;3.28;;;2.40;;
29504;SDS011;16452;54.174;12.092;2022-09-27T10:12:43;3.60;;;2.72;;
29504;SDS011;16452;54.174;12.092;2022-09-27T10:15:21;2.60;;;2.40;;
29504;SDS011;16452;54.174;12.092;2022-09-27T10:17:53;3.03;;;2.40;;
29504;SDS011;16452;54.174;12.092;2022-09-27T10:20:24;2.65;;;2.45;;
29504;SDS011;16452;54.174;12.092;2022-09-27T10:23:12;2.95;;;2.70;;
29504;SDS011;16452;54.174;12.092;2022-09-27T10:25:45;2.90;;;2.60;;
29504;SDS011;16452;54.174;12.092;2022-09-27T10:31:12;2.63;;;2.42;;
29504;SDS011;16452;54.174;12.092;2022-09-27T10:36:31;3.78;;;3.47;;
29504;SDS011;16452;54.174;12.092;2022-09-27T10:39:00;4.38;;;2.50;;
29504;SDS011;16452;54.174;12.092;2022-09-27T10:41:35;2.67;;;2.45;;
29504;SDS011;16452;54.174;12.092;2022-09-27T10:46:44;3.92;;;2.25;;
29504;SDS011;16452;54.174;12.092;2022-09-27T10:52:38;3.95;;;2.40;;
29504;SDS011;16452;54.174;12.092;2022-09-27T10:54:55;5.13;;;2.55;;
29504;SDS011;16452;54.174;12.092;2022-09-27T10:57:52;3.42;;;2.65;;
29504;SDS011;16452;54.174;12.092;2022-09-27T11:03:03;2.97;;;2.30;;
29504;SDS011;16452;54.174;12.092;2022-09-27T11:05:38;2.45;;;2.25;;
29504;SDS011;16452;54.174;12.092;2022-09-27T11:13:39;2.30;;;2.10;;
29504;SDS011;16452;54.174;12.092;2022-09-27T11:19:06;2.97;;;2.00;;
29504;SDS011;16452;54.174;12.092;2022-09-27T11:30:49;2.30;;;2.10;;
29504;SDS011;16452;54.174;12.092;2022-09-27T11:42:30;2.35;;;2.00;;
29504;SDS011;16452;54.174;12.092;2022-09-27T11:45:34;2.40;;;2.20;;
29504;SDS011;16452;54.174;12.092;2022-09-27T11:56:58;2.53;;;1.92;;
29504;SDS011;16452;54.174;12.092;2022-09-27T12:03:31;2.35;;;2.15;;
29504;SDS011;16452;54.174;12.092;2022-09-27T12:07:04;2.70;;;2.50;;
29504;SDS011;16452;54.174;12.092;2022-09-27T12:09:39;2.80;;;2.20;;
29504;SDS011;16452;54.174;12.092;2022-09-27T12:12:18;2.50;;;2.17;;
29504;SDS011;16452;54.174;12.092;2022-09-27T12:14:55;4.53;;;1.98;;
29504;SDS011;16452;54.174;12.092;2022-09-27T12:18:01;2.65;;;1.50;;
29504;SDS011;16452;54.174;12.092;2022-09-27T12:20:56;1.73;;;1.30;;
29504;SDS011;16452;54.174;12.092;2022-09-27T12:23:38;2.33;;;1.20;;
29504;SDS011;16452;54.174;12.092;2022-09-27T12:26:06;1.45;;;1.05;;
29504;SDS011;16452;54.174;12.092;2022-09-27T12:29:09;1.67;;;1.10;;
29504;SDS011;16452;54.174;12.092;2022-09-27T12:34:32;1.20;;;1.10;;
29504;SDS011;16452;54.174;12.092;2022-09-27T12:37:19;2.22;;;1.73;;
29504;SDS011;16452;54.174;12.092;2022-09-27T12:40:18;2.20;;;1.40;;
29504;SDS011;16452;54.174;12.092;2022-09-27T12:43:22;3.28;;;1.50;;
29504;SDS011;16452;54.174;12.092;2022-09-27T12:46:17;5.00;;;1.35;;
29504;SDS011;16452;54.174;12.092;2022-09-27T12:49:16;1.55;;;0.88;;
29504;SDS011;16452;54.174;12.092;2022-09-27T12:52:12;2.72;;;1.13;;
29504;SDS011;16452;54.174;12.092;2022-09-27T13:00:28;2.78;;;1.33;;
29504;SDS011;16452;54.174;12.092;2022-09-27T13:12:02;2.88;;;1.40;;
29504;SDS011;16452;54.174;12.092;2022-09-27T13:15:00;1.50;;;1.30;;
29504;SDS011;16452;54.174;12.092;2022-09-27T13:17:54;5.30;;;1.80;;
29504;SDS011;16452;54.174;12.092;2022-09-27T13:20:36;2.40;;;1.88;;
29504;SDS011;16452;54.174;12.092;2022-09-27T13:25:46;2.60;;;2.08;;
29504;SDS011;16452;54.174;12.092;2022-09-27T13:47:03;3.58;;;1.80;;
29504;SDS011;16452;54.174;12.092;2022-09-27T13:55:59;5.43;;;2.55;;
29504;SDS011;16452;54.174;12.092;2022-09-27T13:58:31;2.78;;;1.80;;
29504;SDS011;16452;54.174;12.092;2022-09-27T14:01:16;4.05;;;2.00;;
29504;SDS011;16452;54.174;12.092;2022-09-27T14:04:01;3.95;;;2.97;;
29504;SDS011;16452;54.174;12.092;2022-09-27T14:06:42;2.97;;;1.80;;
29504;SDS011;16452;54.174;12.092;2022-09-27T14:11:53;3.20;;;1.35;;
29504;SDS011;16452;54.174;12.092;2022-09-27T14:14:26;2.25;;;1.10;;
29504;SDS011;16452;54.174;12.092;2022-09-27T14:16:57;1.98;;;1.10;;
29504;SDS011;16452;54.174;12.092;2022-09-27T14:19:24;1.70;;;1.13;;
29504;SDS011;16452;54.174;12.092;2022-09-27T14:21:51;3.72;;;1.10;;
29504;SDS011;16452;54.174;12.092;2022-09-27T14:24:24;1.10;;;1.00;;
29504;SDS011;16452;54.174;12.092;2022-09-27T14:30:13;1.63;;;1.00;;
29504;SDS011;16452;54.174;12.092;2022-09-27T14:32:51;1.35;;;0.85;;
29504;SDS011;16452;54.174;12.092;2022-09-27T14:35:20;1.30;;;1.10;;
29504;SDS011;16452;54.174;12.092;2022-09-27T14:38:09;4.70;;;1.10;;
29504;SDS011;16452;54.174;12.092;2022-09-27T14:41:05;1.42;;;0.70;;
29504;SDS011;16452;54.174;12.092;2022-09-27T14:43:32;2.45;;;1.67;;
29504;SDS011;16452;54.174;12.092;2022-09-27T14:46:01;2.58;;;1.15;;
29504;SDS011;16452;54.174;12.092;2022-09-27T14:48:36;2.80;;;1.20;;
29504;SDS011;16452;54.174;12.092;2022-09-27T14:53:52;2.78;;;1.00;;
29504;SDS011;16452;54.174;12.092;2022-09-27T14:56:28;1.25;;;0.90;;
29504;SDS011;16452;54.174;12.092;2022-09-27T14:59:02;3.35;;;1.30;;
29504;SDS011;16452;54.174;12.092;2022-09-27T15:01:35;4.47;;;1.65;;
29504;SDS011;16452;54.174;12.092;2022-09-27T15:04:04;1.30;;;0.80;;
29504;SDS011;16452;54.174;12.092;2022-09-27T15:06:32;2.00;;;1.02;;
29504;SDS011;16452;54.174;12.092;2022-09-27T15:09:01;2.78;;;1.10;;
29504;SDS011;16452;54.174;12.092;2022-09-27T15:11:29;3.33;;;0.95;;
29504;SDS011;16452;54.174;12.092;2022-09-27T15:13:57;4.00;;;1.33;;
29504;SDS011;16452;54.174;12.092;2022-09-27T15:16:25;1.90;;;1.40;;
29504;SDS011;16452;54.174;12.092;2022-09-27T15:19:02;4.20;;;1.52;;
29504;SDS011;16452;54.174;12.092;2022-09-27T15:21:39;2.13;;;1.00;;
29504;SDS011;16452;54.174;12.092;2022-09-27T15:24:05;4.25;;;1.40;;
29504;SDS011;16452;54.174;12.092;2022-09-27T15:29:49;5.95;;;1.98;;
29504;SDS011;16452;54.174;12.092;2022-09-27T15:32:19;3.00;;;1.70;;
29504;SDS011;16452;54.174;12.092;2022-09-27T15:34:48;8.50;;;1.95;;
29504;SDS011;16452;54.174;12.092;2022-09-27T15:37:24;5.82;;;1.80;;
29504;SDS011;16452;54.174;12.092;2022-09-27T15:43:21;3.35;;;1.02;;
29504;SDS011;16452;54.174;12.092;2022-09-27T15:45:54;3.78;;;1.55;;
29504;SDS011;16452;54.174;12.092;2022-09-27T15:48:27;3.78;;;1.35;;
29504;SDS011;16452;54.174;12.092;2022-09-27T15:50:59;5.63;;;1.58;;
29504;SDS011;16452;54.174;12.092;2022-09-27T15:55:59;2.92;;;0.90;;
29504;SDS011;16452;54.174;12.092;2022-09-27T15:58:26;2.33;;;1.00;;
29504;SDS011;16452;54.174;12.092;2022-09-27T16:00:56;3.05;;;0.98;;
29504;SDS011;16452;54.174;12.092;2022-09-27T16:06:02;3.40;;;1.00;;
29504;SDS011;16452;54.174;12.092;2022-09-27T16:08:28;2.70;;;1.08;;
29504;SDS011;16452;54.174;12.092;2022-09-27T16:10:55;2.65;;;1.58;;
29504;SDS011;16452;54.174;12.092;2022-09-27T16:13:23;4.72;;;1.33;;
29504;SDS011;16452;54.174;12.092;2022-09-27T16:15:50;1.20;;;0.80;;
29504;SDS011;16452;54.174;12.092;2022-09-27T16:18:16;1.95;;;0.88;;
29504;SDS011;16452;54.174;12.092;2022-09-27T16:20:42;2.95;;;1.00;;
29504;SDS011;16452;54.174;12.092;2022-09-27T16:23:10;2.05;;;0.80;;
29504;SDS011;16452;54.174;12.092;2022-09-27T16:25:35;4.43;;;2.30;;
29504;SDS011;16452;54.174;12.092;2022-09-27T16:28:02;4.50;;;1.30;;
29504;SDS011;16452;54.174;12.092;2022-09-27T16:30:29;2.63;;;0.98;;
29504;SDS011;16452;54.174;12.092;2022-09-27T16:32:55;4.18;;;1.40;;
29504;SDS011;16452;54.174;12.092;2022-09-27T16:35:24;4.03;;;1.33;;
29504;SDS011;16452;54.174;12.092;2022-09-27T16:37:52;3.15;;;1.45;;
29504;SDS011;16452;54.174;12.092;2022-09-27T16:40:17;3.60;;;1.63;;
29504;SDS011;16452;54.174;12.092;2022-09-27T16:42:43;1.10;;;1.00;;
29504;SDS011;16452;54.174;12.092;2022-09-27T16:45:12;1.98;;;0.77;;
29504;SDS011;16452;54.174;12.092;2022-09-27T16:47:42;1.98;;;0.93;;
29504;SDS011;16452;54.174;12.092;2022-09-27T16:50:08;3.90;;;1.60;;
29504;SDS011;16452;54.174;12.092;2022-09-27T16:52:58;2.33;;;1.45;;
29504;SDS011;16452;54.174;12.092;2022-09-27T16:55:24;2.50;;;1.40;;
29504;SDS011;16452;54.174;12.092;2022-09-27T16:57:52;2.60;;;1.48;;
29504;SDS011;16452;54.174;12.092;2022-09-27T17:00:21;1.17;;;0.80;;
29504;SDS011;16452;54.174;12.092;2022-09-27T17:02:46;1.35;;;0.90;;
29504;SDS011;16452;54.174;12.092;2022-09-27T17:05:13;3.22;;;1.00;;
29504;SDS011;16452;54.174;12.092;2022-09-27T17:07:39;1.13;;;0.80;;
29504;SDS011;16452;54.174;12.092;2022-09-27T17:10:06;1.98;;;1.10;;
29504;SDS011;16452;54.174;12.092;2022-09-27T17:12:32;2.17;;;1.00;;
29504;SDS011;16452;54.174;12.092;2022-09-27T17:14:58;1.85;;;1.17;;
29504;SDS011;16452;54.174;12.092;2022-09-27T17:17:24;2.13;;;1.10;;
29504;SDS011;16452;54.174;12.092;2022-09-27T17:19:50;2.75;;;1.45;;
29504;SDS011;16452;54.174;12.092;2022-09-27T17:22:16;3.25;;;1.52;;
29504;SDS011;16452;54.174;12.092;2022-09-27T17:24:42;3.55;;;1.40;;
29504;SDS011;16452;54.174;12.092;2022-09-27T17:27:08;2.67;;;1.50;;
29504;SDS011;16452;54.174;12.092;2022-09-27T17:29:34;1.98;;;1.25;;
29504;SDS011;16452;54.174;12.092;2022-09-27T17:32:01;6.05;;;2.05;;
29504;SDS011;16452;54.174;12.092;2022-09-27T17:34:27;2.95;;;1.60;;
29504;SDS011;16452;54.174;12.092;2022-09-27T17:36:56;2.40;;;1.70;;
29504;SDS011;16452;54.174;12.092;2022-09-27T17:39:24;2.67;;;1.90;;
29504;SDS011;16452;54.174;12.092;2022-09-27T17:41:50;4.88;;;2.28;;
29504;SDS011;16452;54.174;12.092;2022-09-27T17:44:17;6.25;;;1.58;;
29504;SDS011;16452;54.174;12.092;2022-09-27T17:46:43;5.25;;;1.58;;
29504;SDS011;16452;54.174;12.092;2022-09-27T17:49:10;3.38;;;1.52;;
29504;SDS011;16452;54.174;12.092;2022-09-27T17:51:56;8.88;;;2.13;;
29504;SDS011;16452;54.174;12.092;2022-09-27T17:54:22;2.95;;;1.45;;
29504;SDS011;16452;54.174;12.092;2022-09-27T17:56:51;1.67;;;1.48;;
29504;SDS011;16452;54.174;12.092;2022-09-27T17:59:17;3.63;;;1.50;;
29504;SDS011;16452;54.174;12.092;2022-09-27T18:01:44;1.85;;;1.17;;
29504;SDS011;16452;54.174;12.092;2022-09-27T18:04:12;4.63;;;1.60;;